Time;durP1;ratioP1;P1;durP2;ratioP2;P2;SDS_P1;SDS_P2;PMS_P1;PMS_P2;Temp;Humidity;BMP_temperature;BMP_pressure;BME280_temperature;BME280_humidity;BME280_pressure;Samples;Min_cycle;Max_cycle;Signal;HPM_P1;HPM_P2
2022/07/01 00:00:08;;;;;;;4.43;2.33;;;;;;;;;;5008411;28;20228;-41
2022/07/01 00:02:34;;;;;;;7.53;2.33;;;;;;;;;;5009477;28;20214;-41
2022/07/01 00:05:00;;;;;;;3.53;2.07;;;;;;;;;;5008002;28;20686;-41
2022/07/01 00:07:26;;;;;;;4.47;2.10;;;;;;;;;;5012869;28;20662;-40
2022/07/01 00:09:52;;;;;;;3.73;2.33;;;;;;;;;;5013500;28;20175;-39
2022/07/01 00:12:18;;;;;;;7.33;2.27;;;;;;;;;;5010898;28;20688;-41
2022/07/01 00:14:44;;;;;;;4.63;1.97;;;;;;;;;;5012508;28;20243;-41
2022/07/01 00:17:10;;;;;;;6.73;2.13;;;;;;;;;;5013028;28;20659;-41
2022/07/01 00:19:36;;;;;;;5.30;2.03;;;;;;;;;;5008264;28;20754;-40
2022/07/01 00:22:02;;;;;;;3.17;1.90;;;;;;;;;;5010993;28;20200;-40
2022/07/01 00:24:29;;;;;;;3.43;2.27;;;;;;;;;;5011572;28;20490;-41
2022/07/01 00:26:55;;;;;;;3.33;1.97;;;;;;;;;;5009377;28;20181;-41
2022/07/01 00:29:21;;;;;;;6.77;2.40;;;;;;;;;;5012574;28;20180;-40
2022/07/01 00:31:47;;;;;;;4.63;1.93;;;;;;;;;;5012414;28;20953;-44
2022/07/01 00:34:13;;;;;;;7.23;2.20;;;;;;;;;;5008152;28;20712;-42
2022/07/01 00:36:39;;;;;;;8.23;2.70;;;;;;;;;;5008488;28;20191;-41
2022/07/01 00:39:05;;;;;;;5.83;2.40;;;;;;;;;;5003864;28;20184;-39
2022/07/01 00:41:31;;;;;;;9.53;2.47;;;;;;;;;;5009473;28;20488;-41
2022/07/01 00:43:57;;;;;;;4.20;2.17;;;;;;;;;;5013129;28;20608;-41
2022/07/01 00:46:24;;;;;;;8.73;2.63;;;;;;;;;;5009826;28;20958;-40
2022/07/01 00:48:51;;;;;;;7.20;2.30;;;;;;;;;;5011724;28;20960;-41
2022/07/01 00:51:19;;;;;;;9.20;2.37;;;;;;;;;;5011997;28;20266;-41
2022/07/01 00:53:45;;;;;;;5.40;2.23;;;;;;;;;;5012970;28;20223;-39
2022/07/01 00:56:11;;;;;;;4.57;2.30;;;;;;;;;;5007909;28;20616;-41
2022/07/01 00:58:37;;;;;;;6.43;2.30;;;;;;;;;;5011752;28;20184;-40
2022/07/01 01:01:04;;;;;;;4.23;2.63;;;;;;;;;;5011760;28;20192;-41
2022/07/01 01:03:30;;;;;;;3.43;2.20;;;;;;;;;;5005380;28;20176;-41
2022/07/01 01:05:57;;;;;;;4.47;2.50;;;;;;;;;;5008599;28;20544;-41
2022/07/01 01:08:25;;;;;;;7.47;2.60;;;;;;;;;;5012807;28;20683;-41
2022/07/01 01:10:52;;;;;;;5.43;2.17;;;;;;;;;;5012145;28;20452;-41
2022/07/01 01:13:18;;;;;;;5.67;2.10;;;;;;;;;;5007451;28;20731;-40
2022/07/01 01:15:44;;;;;;;5.37;2.40;;;;;;;;;;5012312;28;20437;-41
2022/07/01 01:18:10;;;;;;;4.17;2.20;;;;;;;;;;5011658;28;20282;-41
2022/07/01 01:20:37;;;;;;;7.20;2.60;;;;;;;;;;5004025;28;20237;-41
2022/07/01 01:23:04;;;;;;;4.87;2.37;;;;;;;;;;5009600;28;20997;-41
2022/07/01 01:25:34;;;;;;;3.90;2.10;;;;;;;;;;5008745;28;20601;-41
2022/07/01 01:28:00;;;;;;;4.00;2.43;;;;;;;;;;5008332;28;20429;-41
2022/07/01 01:30:27;;;;;;;8.33;2.20;;;;;;;;;;5008802;28;20265;-41
2022/07/01 01:32:53;;;;;;;5.13;2.30;;;;;;;;;;5008269;28;20885;-41
2022/07/01 01:35:19;;;;;;;7.37;2.90;;;;;;;;;;5003606;28;20191;-41
2022/07/01 01:37:45;;;;;;;4.30;2.63;;;;;;;;;;5012042;28;20195;-41
2022/07/01 01:40:13;;;;;;;5.40;2.70;;;;;;;;;;5008927;28;20285;-38
2022/07/01 01:42:40;;;;;;;8.30;2.60;;;;;;;;;;5007087;28;20334;-41
2022/07/01 01:45:06;;;;;;;6.87;2.57;;;;;;;;;;5005181;28;20176;-41
2022/07/01 01:47:32;;;;;;;5.63;2.43;;;;;;;;;;4995785;28;20176;-41
2022/07/01 01:49:59;;;;;;;5.50;2.57;;;;;;;;;;4990670;28;20893;-41
2022/07/01 01:52:25;;;;;;;4.73;2.23;;;;;;;;;;4985613;28;20743;-41
2022/07/01 01:54:51;;;;;;;4.20;2.50;;;;;;;;;;4999310;28;20621;-40
2022/07/01 01:57:17;;;;;;;3.63;2.40;;;;;;;;;;5009103;28;20265;-40
2022/07/01 01:59:43;;;;;;;4.07;2.27;;;;;;;;;;5016710;28;20226;-40
2022/07/01 02:02:09;;;;;;;4.50;1.90;;;;;;;;;;5006515;28;20200;-41
2022/07/01 02:04:35;;;;;;;4.90;2.33;;;;;;;;;;5013095;28;20172;-41
2022/07/01 02:07:01;;;;;;;6.80;2.67;;;;;;;;;;5017427;28;20172;-40
2022/07/01 02:09:28;;;;;;;3.77;2.30;;;;;;;;;;5010662;28;20249;-41
2022/07/01 02:11:55;;;;;;;6.03;2.63;;;;;;;;;;5011582;28;20941;-40
2022/07/01 02:14:21;;;;;;;4.00;2.40;;;;;;;;;;5015451;28;20181;-41
2022/07/01 02:16:47;;;;;;;3.90;2.83;;;;;;;;;;5009356;28;20300;-41
2022/07/01 02:19:13;;;;;;;6.07;2.57;;;;;;;;;;5010393;28;20649;-41
2022/07/01 02:21:39;;;;;;;5.80;2.77;;;;;;;;;;5011910;28;20277;-41
2022/07/01 02:24:05;;;;;;;5.40;3.03;;;;;;;;;;5009500;28;20176;-41
2022/07/01 02:26:31;;;;;;;6.77;2.97;;;;;;;;;;5009862;28;20315;-41
2022/07/01 02:28:57;;;;;;;4.47;2.70;;;;;;;;;;5012163;28;20533;-41
2022/07/01 02:31:23;;;;;;;6.90;3.80;;;;;;;;;;5013069;28;20766;-41
2022/07/01 02:33:49;;;;;;;5.97;3.30;;;;;;;;;;5009310;28;20206;-43
2022/07/01 02:36:15;;;;;;;5.23;3.10;;;;;;;;;;5014379;28;20184;-40
2022/07/01 02:38:42;;;;;;;6.03;3.27;;;;;;;;;;5012840;28;20180;-41
2022/07/01 02:41:09;;;;;;;4.60;3.33;;;;;;;;;;5011155;28;20731;-39
2022/07/01 02:43:36;;;;;;;5.83;3.60;;;;;;;;;;5008738;28;20547;-38
2022/07/01 02:46:02;;;;;;;6.90;4.17;;;;;;;;;;5013044;28;20184;-41
2022/07/01 02:48:28;;;;;;;6.17;3.83;;;;;;;;;;5014486;28;20172;-41
2022/07/01 02:50:54;;;;;;;8.50;4.00;;;;;;;;;;5007250;28;20273;-41
2022/07/01 02:53:21;;;;;;;7.27;3.40;;;;;;;;;;5007795;28;21673;-41
2022/07/01 02:55:47;;;;;;;4.83;3.40;;;;;;;;;;5015905;28;20259;-41
2022/07/01 02:58:13;;;;;;;6.70;3.60;;;;;;;;;;5014533;28;20255;-41
2022/07/01 03:00:39;;;;;;;6.83;3.30;;;;;;;;;;5009529;28;20196;-41
2022/07/01 03:03:05;;;;;;;8.13;3.30;;;;;;;;;;5008320;28;20176;-41
2022/07/01 03:05:32;;;;;;;7.03;3.00;;;;;;;;;;5015463;28;20401;-41
2022/07/01 03:07:58;;;;;;;5.07;2.60;;;;;;;;;;5012038;28;20178;-41
2022/07/01 03:10:24;;;;;;;9.77;3.03;;;;;;;;;;5009520;28;20180;-39
2022/07/01 03:12:50;;;;;;;3.60;2.53;;;;;;;;;;5009177;28;20461;-41
2022/07/01 03:15:16;;;;;;;5.37;2.33;;;;;;;;;;5004744;28;20639;-41
2022/07/01 03:17:46;;;;;;;4.60;2.40;;;;;;;;;;5010851;28;20721;-41
2022/07/01 03:20:13;;;;;;;4.53;2.60;;;;;;;;;;5011131;28;20182;-40
2022/07/01 03:22:40;;;;;;;5.20;2.20;;;;;;;;;;5010109;28;20585;-41
2022/07/01 03:25:06;;;;;;;3.07;1.83;;;;;;;;;;5015479;28;20169;-41
2022/07/01 03:27:33;;;;;;;3.23;2.00;;;;;;;;;;5011218;28;20179;-40
2022/07/01 03:29:59;;;;;;;3.03;1.73;;;;;;;;;;5009606;28;20176;-41
2022/07/01 03:32:26;;;;;;;2.37;1.50;;;;;;;;;;5010895;28;20750;-39
2022/07/01 03:34:52;;;;;;;2.97;1.53;;;;;;;;;;5008587;28;20176;-41
2022/07/01 03:37:19;;;;;;;2.90;1.60;;;;;;;;;;5006676;28;20172;-39
2022/07/01 03:39:45;;;;;;;3.43;1.40;;;;;;;;;;5012224;28;20184;-41
2022/07/01 03:42:11;;;;;;;2.53;1.60;;;;;;;;;;5011236;28;20275;-40
2022/07/01 03:44:37;;;;;;;2.80;1.40;;;;;;;;;;5003823;28;20201;-41
2022/07/01 03:47:07;;;;;;;2.23;1.40;;;;;;;;;;5012376;28;20176;-43
2022/07/01 03:49:34;;;;;;;2.30;1.50;;;;;;;;;;5010192;28;20755;-42
2022/07/01 03:52:00;;;;;;;3.37;1.50;;;;;;;;;;5010249;28;20435;-43
2022/07/01 03:54:29;;;;;;;2.43;1.40;;;;;;;;;;5005827;28;20508;-43
2022/07/01 03:57:03;;;;;;;1.87;1.20;;;;;;;;;;5011078;28;20691;-43
2022/07/01 03:59:30;;;;;;;5.97;1.60;;;;;;;;;;5006818;28;20537;-43
2022/07/01 04:01:57;;;;;;;2.47;1.50;;;;;;;;;;5009617;28;20200;-43
2022/07/01 04:04:23;;;;;;;4.13;1.30;;;;;;;;;;5007012;28;20483;-41
2022/07/01 04:06:50;;;;;;;1.70;1.20;;;;;;;;;;5011403;28;20173;-40
2022/07/01 04:09:16;;;;;;;2.13;1.20;;;;;;;;;;5007662;28;20176;-40
2022/07/01 04:11:43;;;;;;;2.63;1.37;;;;;;;;;;5012625;28;20173;-43
2022/07/01 04:14:10;;;;;;;1.83;1.30;;;;;;;;;;5005337;28;20620;-43
2022/07/01 04:16:36;;;;;;;2.53;1.27;;;;;;;;;;5009531;28;20462;-41
2022/07/01 04:19:03;;;;;;;4.37;1.50;;;;;;;;;;5008185;28;20985;-41
2022/07/01 04:24:14;;;;;;;2.43;1.10;;;;;;;;;;5006114;28;20206;-42
2022/07/01 04:26:41;;;;;;;2.70;1.30;;;;;;;;;;5011379;28;20670;-42
2022/07/01 04:29:10;;;;;;;1.90;1.30;;;;;;;;;;5007116;28;20342;-40
2022/07/01 04:31:36;;;;;;;3.37;2.30;;;;;;;;;;5010545;28;21057;-40
2022/07/01 04:34:03;;;;;;;4.77;2.50;;;;;;;;;;5009168;28;20187;-42
2022/07/01 04:36:29;;;;;;;4.43;2.40;;;;;;;;;;5009096;28;20604;-43
2022/07/01 04:38:55;;;;;;;4.77;2.20;;;;;;;;;;5006210;28;20362;-42
2022/07/01 04:44:06;;;;;;;3.50;1.70;;;;;;;;;;5007050;28;20754;-42
2022/07/01 04:46:32;;;;;;;2.73;1.50;;;;;;;;;;5009229;28;20168;-43
2022/07/01 04:48:59;;;;;;;3.93;1.50;;;;;;;;;;5009112;28;20175;-42
2022/07/01 04:51:25;;;;;;;3.10;1.60;;;;;;;;;;5006985;28;20343;-42
2022/07/01 04:53:51;;;;;;;4.77;2.10;;;;;;;;;;5009307;28;20183;-41
2022/07/01 04:56:17;;;;;;;5.83;2.03;;;;;;;;;;5009864;28;20207;-41
2022/07/01 04:58:43;;;;;;;7.40;2.30;;;;;;;;;;5008892;28;20172;-40
2022/07/01 05:01:09;;;;;;;5.93;2.50;;;;;;;;;;5005600;28;20200;-43
2022/07/01 05:03:35;;;;;;;6.07;2.40;;;;;;;;;;5006715;28;20582;-41
2022/07/01 05:06:01;;;;;;;4.60;2.10;;;;;;;;;;5006703;28;21790;-41
2022/07/01 05:08:28;;;;;;;5.70;2.40;;;;;;;;;;5011227;28;20573;-44
2022/07/01 05:10:54;;;;;;;5.37;2.27;;;;;;;;;;5009596;28;20473;-41
2022/07/01 05:13:20;;;;;;;4.13;1.80;;;;;;;;;;5006722;28;20180;-44
2022/07/01 05:15:46;;;;;;;6.10;1.90;;;;;;;;;;5008794;28;20237;-40
2022/07/01 05:23:42;;;;;;;8.57;1.70;;;;;;;;;;4998618;28;20199;-42
2022/07/01 05:26:08;;;;;;;5.00;1.60;;;;;;;;;;5000911;28;20176;-41
2022/07/01 05:28:34;;;;;;;2.20;1.60;;;;;;;;;;5010484;28;20179;-41
2022/07/01 05:31:00;;;;;;;2.40;1.70;;;;;;;;;;5009872;28;20180;-40
2022/07/01 05:33:26;;;;;;;4.53;1.80;;;;;;;;;;5009344;28;20188;-41
2022/07/01 05:35:53;;;;;;;8.20;1.80;;;;;;;;;;5011928;28;20285;-41
2022/07/01 05:38:19;;;;;;;4.67;2.10;;;;;;;;;;5010752;28;20223;-41
2022/07/01 05:40:45;;;;;;;3.47;1.40;;;;;;;;;;5006233;28;20870;-40
2022/07/01 05:43:11;;;;;;;7.17;1.90;;;;;;;;;;5009722;28;20172;-40
2022/07/01 05:45:38;;;;;;;8.30;1.70;;;;;;;;;;5015173;28;20474;-40
2022/07/01 05:48:04;;;;;;;4.40;1.40;;;;;;;;;;5011924;28;20623;-40
2022/07/01 05:50:30;;;;;;;6.20;1.90;;;;;;;;;;5008129;28;20737;-40
2022/07/01 05:52:56;;;;;;;4.73;1.50;;;;;;;;;;5010910;28;20378;-40
2022/07/01 05:55:22;;;;;;;3.97;1.27;;;;;;;;;;5011000;28;20996;-39
2022/07/01 05:57:48;;;;;;;6.27;1.63;;;;;;;;;;5008547;28;20176;-40
2022/07/01 06:00:15;;;;;;;4.53;1.70;;;;;;;;;;5008882;28;20184;-40
2022/07/01 06:02:41;;;;;;;4.80;1.83;;;;;;;;;;5010598;28;20179;-41
2022/07/01 06:05:07;;;;;;;2.33;1.33;;;;;;;;;;5011915;28;20723;-41
2022/07/01 06:07:33;;;;;;;3.33;1.50;;;;;;;;;;5008489;28;20315;-40
2022/07/01 06:09:59;;;;;;;3.23;1.30;;;;;;;;;;5008378;28;20173;-40
2022/07/01 06:12:25;;;;;;;3.87;1.50;;;;;;;;;;5011294;28;20172;-41
2022/07/01 06:14:51;;;;;;;7.80;1.60;;;;;;;;;;5010945;28;20743;-41
2022/07/01 06:17:18;;;;;;;5.13;1.60;;;;;;;;;;5010431;28;20741;-41
2022/07/01 06:19:44;;;;;;;2.33;1.30;;;;;;;;;;5011576;28;20176;-41
2022/07/01 06:22:10;;;;;;;4.40;1.50;;;;;;;;;;5008717;28;20783;-40
2022/07/01 06:24:36;;;;;;;3.03;1.30;;;;;;;;;;5010763;28;20436;-40
2022/07/01 06:27:04;;;;;;;5.03;1.60;;;;;;;;;;5012724;28;20172;-41
2022/07/01 06:29:30;;;;;;;5.30;1.40;;;;;;;;;;5011897;28;20176;-40
2022/07/01 06:31:56;;;;;;;3.80;1.73;;;;;;;;;;5006899;28;20173;-40
2022/07/01 06:34:23;;;;;;;3.50;1.50;;;;;;;;;;5012218;28;20663;-41
2022/07/01 06:36:49;;;;;;;3.60;1.50;;;;;;;;;;5007801;28;20491;-41
2022/07/01 06:39:15;;;;;;;6.70;1.80;;;;;;;;;;5009235;28;20173;-41
2022/07/01 06:41:41;;;;;;;4.37;1.23;;;;;;;;;;5009395;28;20470;-41
2022/07/01 06:44:07;;;;;;;5.87;1.60;;;;;;;;;;5014300;28;20339;-41
2022/07/01 06:46:33;;;;;;;6.73;1.73;;;;;;;;;;5009195;28;20169;-41
2022/07/01 06:48:59;;;;;;;8.77;1.80;;;;;;;;;;5012179;28;20222;-41
2022/07/01 06:51:27;;;;;;;4.83;1.63;;;;;;;;;;5013785;28;20176;-40
2022/07/01 06:53:53;;;;;;;6.63;1.40;;;;;;;;;;5011357;28;20285;-41
2022/07/01 06:56:20;;;;;;;5.30;1.97;;;;;;;;;;5012933;28;20580;-39
2022/07/01 06:58:46;;;;;;;3.80;1.70;;;;;;;;;;5015676;28;20190;-41
2022/07/01 07:01:12;;;;;;;4.37;1.57;;;;;;;;;;5014072;28;20513;-40
2022/07/01 07:03:38;;;;;;;3.90;1.50;;;;;;;;;;5012976;28;20172;-39
2022/07/01 07:06:04;;;;;;;4.63;2.00;;;;;;;;;;5003758;28;20177;-41
2022/07/01 07:08:31;;;;;;;8.13;2.00;;;;;;;;;;4999144;28;20637;-41
2022/07/01 07:10:58;;;;;;;7.43;2.07;;;;;;;;;;4997435;28;20617;-41
2022/07/01 07:13:24;;;;;;;4.87;2.00;;;;;;;;;;5002046;28;20328;-41
2022/07/01 07:15:50;;;;;;;6.83;1.70;;;;;;;;;;5002249;28;20184;-39
2022/07/01 07:18:16;;;;;;;4.77;2.20;;;;;;;;;;5002295;28;20597;-41
2022/07/01 07:20:42;;;;;;;7.17;1.90;;;;;;;;;;5000491;28;20196;-40
2022/07/01 07:23:09;;;;;;;4.93;1.83;;;;;;;;;;4997528;28;20183;-40
2022/07/01 07:25:35;;;;;;;7.07;1.90;;;;;;;;;;5003435;28;20574;-40
2022/07/01 07:28:01;;;;;;;4.70;1.57;;;;;;;;;;4996485;28;20763;-41
2022/07/01 07:30:27;;;;;;;3.63;1.67;;;;;;;;;;4994796;28;20376;-40
2022/07/01 07:32:53;;;;;;;4.57;1.70;;;;;;;;;;5010384;28;20172;-40
2022/07/01 07:35:19;;;;;;;12.97;2.53;;;;;;;;;;5010268;28;20176;-42
2022/07/01 07:37:45;;;;;;;6.20;1.80;;;;;;;;;;5005419;28;20172;-41
2022/07/01 07:40:13;;;;;;;12.40;2.47;;;;;;;;;;5013107;28;20188;-41
2022/07/01 07:42:40;;;;;;;3.97;1.37;;;;;;;;;;5010279;28;20624;-41
2022/07/01 07:45:07;;;;;;;6.97;1.60;;;;;;;;;;5002367;28;20422;-40
2022/07/01 07:47:34;;;;;;;3.47;1.50;;;;;;;;;;4998564;28;20223;-41
2022/07/01 07:50:00;;;;;;;4.80;1.27;;;;;;;;;;4994262;28;20219;-41
2022/07/01 07:52:26;;;;;;;5.73;1.80;;;;;;;;;;4999756;28;20741;-41
2022/07/01 07:54:52;;;;;;;3.57;1.70;;;;;;;;;;5014668;28;20281;-40
2022/07/01 07:57:18;;;;;;;5.20;2.00;;;;;;;;;;5013942;28;20393;-41
2022/07/01 07:59:44;;;;;;;4.17;2.00;;;;;;;;;;5000854;28;21172;-40
2022/07/01 08:02:10;;;;;;;7.93;2.03;;;;;;;;;;5003661;28;20601;-40
2022/07/01 08:04:36;;;;;;;8.07;2.30;;;;;;;;;;5003883;28;20592;-39
2022/07/01 08:07:02;;;;;;;6.90;2.27;;;;;;;;;;5000258;28;20183;-41
2022/07/01 08:09:29;;;;;;;7.80;1.73;;;;;;;;;;5007301;28;20296;-41
2022/07/01 08:11:55;;;;;;;5.23;1.67;;;;;;;;;;5014564;28;20305;-41
2022/07/01 08:14:21;;;;;;;3.47;1.40;;;;;;;;;;5030069;28;20188;-41
2022/07/01 08:16:47;;;;;;;2.23;1.50;;;;;;;;;;5010669;28;20195;-39
2022/07/01 08:19:13;;;;;;;3.93;1.40;;;;;;;;;;5012241;28;20383;-40
2022/07/01 08:21:39;;;;;;;6.63;1.40;;;;;;;;;;5016088;28;20273;-41
2022/07/01 08:24:05;;;;;;;2.57;1.37;;;;;;;;;;5014733;28;20359;-40
2022/07/01 08:26:32;;;;;;;5.77;1.73;;;;;;;;;;5002187;28;20215;-41
2022/07/01 08:28:58;;;;;;;5.03;1.70;;;;;;;;;;5002633;28;20283;-41
2022/07/01 08:31:24;;;;;;;5.00;1.90;;;;;;;;;;5002953;28;20397;-41
2022/07/01 08:33:50;;;;;;;5.63;1.70;;;;;;;;;;5018024;28;20905;-41
2022/07/01 08:36:16;;;;;;;3.73;1.70;;;;;;;;;;5006829;28;20478;-40
2022/07/01 08:38:42;;;;;;;5.83;1.93;;;;;;;;;;5003166;28;20181;-41
2022/07/01 08:41:08;;;;;;;4.03;2.10;;;;;;;;;;4997294;28;20660;-41
2022/07/01 08:43:35;;;;;;;5.90;2.00;;;;;;;;;;4999725;28;20180;-41
2022/07/01 08:46:01;;;;;;;4.20;1.97;;;;;;;;;;4999562;28;20176;-41
2022/07/01 08:48:30;;;;;;;5.07;1.80;;;;;;;;;;5003374;28;20182;-41
2022/07/01 08:50:57;;;;;;;8.57;1.90;;;;;;;;;;5010105;28;20797;-41
2022/07/01 08:53:23;;;;;;;7.57;2.07;;;;;;;;;;5014548;28;20275;-41
2022/07/01 08:58:35;;;;;;;5.67;1.90;;;;;;;;;;4996774;28;20705;-42
2022/07/01 09:01:13;;;;;;;4.60;1.77;;;;;;;;;;4997456;28;20202;-40
2022/07/01 09:03:39;;;;;;;11.87;2.27;;;;;;;;;;4999542;28;20180;-41
2022/07/01 09:06:11;;;;;;;4.03;2.10;;;;;;;;;;4997072;28;20563;-41
2022/07/01 09:08:37;;;;;;;6.90;1.80;;;;;;;;;;5013062;28;20174;-41
2022/07/01 09:11:12;;;;;;;5.67;2.00;;;;;;;;;;5014490;28;20576;-41
2022/07/01 09:13:39;;;;;;;7.93;2.43;;;;;;;;;;5010620;28;20184;-40
2022/07/01 09:16:16;;;;;;;6.87;2.40;;;;;;;;;;5014189;28;20184;-39
2022/07/01 09:19:02;;;;;;;5.93;2.27;;;;;;;;;;5015924;28;20264;-40
2022/07/01 09:21:29;;;;;;;5.27;1.83;;;;;;;;;;5011729;28;20199;-41
2022/07/01 09:23:56;;;;;;;5.13;2.40;;;;;;;;;;5013695;28;20801;-42
2022/07/01 09:26:22;;;;;;;5.53;2.00;;;;;;;;;;5013839;28;20171;-41
2022/07/01 09:28:55;;;;;;;5.10;2.10;;;;;;;;;;5014334;28;20312;-41
2022/07/01 09:31:21;;;;;;;3.60;1.90;;;;;;;;;;5012209;28;20337;-42
2022/07/01 09:34:02;;;;;;;5.33;2.00;;;;;;;;;;5012040;28;20696;-42
2022/07/01 09:36:28;;;;;;;6.77;2.60;;;;;;;;;;5006938;28;20571;-41
2022/07/01 09:38:54;;;;;;;8.67;2.40;;;;;;;;;;5006937;28;20176;-41
2022/07/01 09:41:23;;;;;;;4.80;2.43;;;;;;;;;;4999201;28;20610;-42
2022/07/01 09:43:49;;;;;;;4.53;2.67;;;;;;;;;;5000361;28;20343;-41
2022/07/01 09:46:15;;;;;;;6.87;2.40;;;;;;;;;;5000110;28;20247;-41
2022/07/01 09:48:43;;;;;;;10.13;2.70;;;;;;;;;;5000761;28;20183;-41
2022/07/01 09:51:10;;;;;;;7.47;2.40;;;;;;;;;;4999949;28;20188;-41
2022/07/01 09:53:37;;;;;;;7.03;2.40;;;;;;;;;;4997235;28;20177;-41
2022/07/01 09:56:03;;;;;;;6.63;2.67;;;;;;;;;;4998948;28;20290;-41
2022/07/01 09:58:32;;;;;;;5.53;2.50;;;;;;;;;;5001230;28;20191;-39
2022/07/01 10:00:58;;;;;;;5.73;2.50;;;;;;;;;;5000231;28;22221;-41
2022/07/01 10:03:26;;;;;;;4.70;2.50;;;;;;;;;;5008244;28;20283;-42
2022/07/01 10:05:52;;;;;;;4.67;2.10;;;;;;;;;;5008412;28;20317;-42
2022/07/01 10:08:37;;;;;;;4.60;1.80;;;;;;;;;;5005171;28;20172;-41
2022/07/01 10:11:12;;;;;;;3.43;1.80;;;;;;;;;;5011243;28;20921;-41
2022/07/01 10:13:41;;;;;;;3.53;2.00;;;;;;;;;;5007431;28;20659;-40
2022/07/01 10:16:07;;;;;;;6.53;2.00;;;;;;;;;;5009296;28;20192;-41
2022/07/01 10:18:33;;;;;;;5.83;2.30;;;;;;;;;;5009552;28;20635;-41
2022/07/01 10:21:00;;;;;;;8.00;2.00;;;;;;;;;;5005007;28;20492;-41
2022/07/01 10:23:40;;;;;;;4.43;2.23;;;;;;;;;;5008625;28;21073;-42
2022/07/01 10:26:13;;;;;;;4.93;1.93;;;;;;;;;;5017680;28;20434;-41
2022/07/01 10:28:41;;;;;;;3.83;2.00;;;;;;;;;;5013685;28;20172;-42
2022/07/01 10:31:13;;;;;;;2.77;1.70;;;;;;;;;;5014296;28;20183;-42
2022/07/01 10:33:42;;;;;;;5.93;2.10;;;;;;;;;;5005154;28;20291;-42
2022/07/01 10:36:08;;;;;;;4.03;2.10;;;;;;;;;;5000312;28;20687;-42
2022/07/01 10:38:34;;;;;;;7.20;2.50;;;;;;;;;;4999810;28;20192;-42
2022/07/01 10:41:10;;;;;;;6.50;2.37;;;;;;;;;;4997873;28;20533;-41
2022/07/01 10:43:37;;;;;;;6.13;2.23;;;;;;;;;;5001283;28;20172;-42
2022/07/01 10:46:04;;;;;;;4.60;2.10;;;;;;;;;;5002069;28;20180;-41
2022/07/01 10:48:34;;;;;;;6.43;2.30;;;;;;;;;;5003213;28;20473;-41
2022/07/01 10:51:00;;;;;;;5.07;2.20;;;;;;;;;;5001357;28;20530;-42
2022/07/01 10:53:45;;;;;;;5.37;2.50;;;;;;;;;;5005127;28;20176;-42
2022/07/01 10:56:15;;;;;;;5.20;2.23;;;;;;;;;;5015121;28;20188;-44
2022/07/01 10:58:42;;;;;;;5.73;2.10;;;;;;;;;;5015941;28;20204;-42
2022/07/01 11:01:09;;;;;;;4.33;2.23;;;;;;;;;;5012119;28;20201;-42
2022/07/01 11:03:36;;;;;;;6.10;2.60;;;;;;;;;;5017112;28;20676;-42
2022/07/01 11:06:03;;;;;;;5.70;2.50;;;;;;;;;;5017959;28;20596;-42
2022/07/01 11:08:29;;;;;;;4.63;2.20;;;;;;;;;;5013294;28;20444;-42
2022/07/01 11:10:57;;;;;;;4.60;2.20;;;;;;;;;;5012149;28;20447;-42
2022/07/01 11:13:23;;;;;;;4.23;2.00;;;;;;;;;;5014189;28;20300;-42
2022/07/01 11:15:49;;;;;;;5.03;2.40;;;;;;;;;;5012216;28;20181;-42
2022/07/01 11:18:16;;;;;;;4.90;2.20;;;;;;;;;;5012321;28;20189;-42
2022/07/01 11:20:43;;;;;;;4.60;2.33;;;;;;;;;;5014086;28;20205;-42
2022/07/01 11:23:09;;;;;;;4.60;2.80;;;;;;;;;;5017200;28;20192;-42
2022/07/01 11:25:35;;;;;;;4.57;2.90;;;;;;;;;;5015955;28;20192;-42
2022/07/01 11:28:01;;;;;;;7.53;3.07;;;;;;;;;;5016543;28;20415;-42
2022/07/01 11:30:27;;;;;;;4.57;2.60;;;;;;;;;;5012729;28;20692;-42
2022/07/01 11:32:55;;;;;;;5.67;2.50;;;;;;;;;;5012513;28;20207;-41
2022/07/01 11:40:55;;;;;;;6.23;2.70;;;;;;;;;;5016510;28;20506;-40
2022/07/01 11:43:23;;;;;;;5.40;2.40;;;;;;;;;;5013289;28;20592;-41
2022/07/01 11:45:49;;;;;;;6.53;2.73;;;;;;;;;;5013683;28;20306;-43
2022/07/01 11:48:35;;;;;;;6.37;2.40;;;;;;;;;;5015429;28;20160;-44
2022/07/01 11:51:05;;;;;;;6.37;2.20;;;;;;;;;;5015444;28;20185;-43
2022/07/01 11:53:31;;;;;;;10.47;3.37;;;;;;;;;;5013229;28;20600;-43
2022/07/01 11:55:57;;;;;;;3.47;2.73;;;;;;;;;;5015198;28;20185;-43
2022/07/01 11:58:23;;;;;;;5.10;2.43;;;;;;;;;;5016240;28;20586;-43
2022/07/01 12:00:50;;;;;;;4.37;2.87;;;;;;;;;;5013505;28;20692;-43
2022/07/01 12:03:42;;;;;;;5.33;2.70;;;;;;;;;;5012461;28;20169;-43
2022/07/01 12:06:08;;;;;;;7.67;2.63;;;;;;;;;;5016583;28;20514;-43
2022/07/01 12:08:35;;;;;;;4.40;2.70;;;;;;;;;;5009602;28;20176;-43
2022/07/01 12:11:01;;;;;;;3.30;2.40;;;;;;;;;;5014493;28;20595;-43
2022/07/01 12:13:27;;;;;;;3.53;2.20;;;;;;;;;;5009932;28;20401;-42
2022/07/01 12:15:53;;;;;;;5.30;2.70;;;;;;;;;;5017132;28;20176;-42
2022/07/01 12:18:20;;;;;;;4.47;2.63;;;;;;;;;;5014509;28;20175;-42
2022/07/01 12:20:50;;;;;;;7.03;2.60;;;;;;;;;;5011408;28;20204;-42
2022/07/01 12:23:16;;;;;;;9.33;2.93;;;;;;;;;;5018658;28;20234;-42
2022/07/01 12:25:46;;;;;;;4.60;2.10;;;;;;;;;;5015667;28;20253;-42
2022/07/01 12:28:33;;;;;;;5.03;2.33;;;;;;;;;;5009595;28;21171;-42
2022/07/01 12:31:03;;;;;;;6.50;2.70;;;;;;;;;;5013186;28;20723;-41
2022/07/01 12:33:29;;;;;;;5.00;2.30;;;;;;;;;;5012229;28;20575;-41
2022/07/01 12:35:56;;;;;;;4.03;2.20;;;;;;;;;;5014972;28;20175;-41
2022/07/01 12:38:22;;;;;;;3.33;2.53;;;;;;;;;;5013393;28;20197;-41
2022/07/01 12:40:48;;;;;;;4.40;2.77;;;;;;;;;;5016696;28;20211;-41
2022/07/01 12:43:37;;;;;;;6.67;2.33;;;;;;;;;;5015178;28;20279;-42
2022/07/01 12:46:03;;;;;;;4.00;2.33;;;;;;;;;;5013464;28;20177;-41
2022/07/01 12:48:30;;;;;;;6.40;2.80;;;;;;;;;;5011065;28;20172;-41
2022/07/01 12:50:57;;;;;;;3.97;2.70;;;;;;;;;;5014741;28;21073;-42
2022/07/01 12:53:24;;;;;;;5.70;2.30;;;;;;;;;;5008583;28;20643;-42
2022/07/01 12:55:57;;;;;;;5.40;2.57;;;;;;;;;;5013359;28;20237;-42
2022/07/01 12:58:24;;;;;;;4.73;2.70;;;;;;;;;;5013426;28;20537;-42
2022/07/01 13:00:52;;;;;;;3.33;2.40;;;;;;;;;;5009338;28;20640;-42
2022/07/01 13:03:22;;;;;;;4.67;2.70;;;;;;;;;;5013049;28;20180;-42
2022/07/01 13:05:48;;;;;;;6.37;2.57;;;;;;;;;;5016141;28;20227;-42
2022/07/01 13:08:14;;;;;;;4.50;2.70;;;;;;;;;;5012702;28;20238;-42
2022/07/01 13:10:41;;;;;;;3.93;2.17;;;;;;;;;;5015500;28;20651;-41
2022/07/01 13:13:08;;;;;;;4.47;2.47;;;;;;;;;;5013864;28;20180;-42
2022/07/01 13:15:34;;;;;;;4.60;2.47;;;;;;;;;;5011674;28;20459;-40
2022/07/01 13:18:00;;;;;;;3.33;2.10;;;;;;;;;;5012920;28;20559;-42
2022/07/01 13:20:27;;;;;;;5.00;2.47;;;;;;;;;;5014365;28;20178;-42
2022/07/01 13:22:53;;;;;;;4.67;2.43;;;;;;;;;;5009654;28;20325;-42
2022/07/01 13:25:19;;;;;;;3.87;2.50;;;;;;;;;;5013680;28;20189;-42
2022/07/01 13:27:46;;;;;;;5.07;2.23;;;;;;;;;;5011718;28;20298;-42
2022/07/01 13:30:13;;;;;;;5.40;2.43;;;;;;;;;;5007782;28;20792;-42
2022/07/01 13:32:39;;;;;;;3.13;2.00;;;;;;;;;;5009880;28;21034;-42
2022/07/01 13:35:06;;;;;;;5.37;2.27;;;;;;;;;;5012659;28;20244;-42
2022/07/01 13:37:32;;;;;;;5.50;2.30;;;;;;;;;;5013841;28;20179;-42
2022/07/01 13:39:58;;;;;;;5.13;2.40;;;;;;;;;;5014430;28;20194;-42
2022/07/01 13:42:24;;;;;;;2.63;2.20;;;;;;;;;;5008862;28;20208;-42
2022/07/01 13:44:50;;;;;;;3.87;2.27;;;;;;;;;;5014505;28;20272;-42
2022/07/01 13:47:17;;;;;;;4.13;2.10;;;;;;;;;;5015244;28;20202;-42
2022/07/01 13:49:43;;;;;;;4.03;2.43;;;;;;;;;;5012371;28;20220;-42
2022/07/01 13:52:10;;;;;;;5.10;2.10;;;;;;;;;;5014259;28;20653;-42
2022/07/01 13:54:36;;;;;;;4.97;2.23;;;;;;;;;;5016799;28;21118;-41
2022/07/01 13:57:02;;;;;;;4.10;2.20;;;;;;;;;;5014742;28;20190;-42
2022/07/01 13:59:28;;;;;;;7.25;2.28;;;;;;;;;;5016344;28;20180;-42
2022/07/01 14:01:55;;;;;;;5.40;2.20;;;;;;;;;;5019179;28;20200;-42
2022/07/01 14:04:21;;;;;;;5.35;2.33;;;;;;;;;;5016485;28;20211;-42
2022/07/01 14:06:47;;;;;;;6.50;2.47;;;;;;;;;;5017679;28;20993;-41
2022/07/01 14:09:13;;;;;;;7.97;2.27;;;;;;;;;;5020405;28;20177;-42
2022/07/01 14:11:39;;;;;;;5.90;2.13;;;;;;;;;;5015916;28;21286;-42
2022/07/01 14:14:05;;;;;;;6.57;2.30;;;;;;;;;;5018793;28;20186;-42
2022/07/01 14:16:31;;;;;;;6.93;1.95;;;;;;;;;;5013133;28;20195;-42
2022/07/01 14:18:58;;;;;;;7.10;2.40;;;;;;;;;;5007199;28;20284;-42
2022/07/01 14:21:24;;;;;;;5.00;2.10;;;;;;;;;;5003783;28;20202;-41
2022/07/01 14:23:50;;;;;;;4.32;2.20;;;;;;;;;;5005845;28;20169;-42
2022/07/01 14:26:16;;;;;;;4.22;2.08;;;;;;;;;;5006186;28;20184;-41
2022/07/01 14:28:42;;;;;;;4.47;2.20;;;;;;;;;;5004607;28;20176;-42
2022/07/01 14:31:08;;;;;;;4.90;2.10;;;;;;;;;;5004786;28;20559;-42
2022/07/01 14:33:35;;;;;;;3.30;2.03;;;;;;;;;;5003021;28;20173;-42
2022/07/01 14:36:01;;;;;;;4.90;2.03;;;;;;;;;;5000341;28;20965;-41
2022/07/01 14:38:27;;;;;;;3.87;1.93;;;;;;;;;;5004621;28;20691;-42
2022/07/01 14:40:53;;;;;;;4.07;2.10;;;;;;;;;;5011704;28;20432;-42
2022/07/01 14:43:19;;;;;;;5.15;2.10;;;;;;;;;;5010123;28;20165;-41
2022/07/01 14:45:46;;;;;;;6.63;2.47;;;;;;;;;;5012259;28;20683;-40
2022/07/01 14:48:12;;;;;;;5.67;2.27;;;;;;;;;;5013861;28;20168;-41
2022/07/01 14:50:40;;;;;;;4.60;1.93;;;;;;;;;;5014419;28;20407;-40
2022/07/01 14:53:07;;;;;;;2.60;1.83;;;;;;;;;;5010267;28;20271;-41
2022/07/01 14:55:34;;;;;;;5.90;1.80;;;;;;;;;;5012999;28;20178;-42
2022/07/01 14:58:00;;;;;;;4.32;1.90;;;;;;;;;;5004008;28;20606;-41
2022/07/01 15:00:26;;;;;;;4.28;2.30;;;;;;;;;;5003817;28;20206;-41